createdAt,value
2016-09-30T00:00:26.755Z,0
2016-09-30T00:01:26.777Z,0
2016-09-30T00:02:26.355Z,0
2016-09-30T00:03:26.285Z,0
2016-09-30T00:04:40.952Z,0
2016-09-30T00:05:27.091Z,0
2016-09-30T00:06:27.013Z,0
2016-09-30T00:07:26.258Z,0
2016-09-30T00:08:26.257Z,0
2016-09-30T00:09:26.167Z,0
2016-09-30T00:10:26.575Z,0
2016-09-30T00:11:26.132Z,0
2016-09-30T00:12:26.799Z,0
2016-09-30T00:13:26.590Z,0
2016-09-30T00:14:41.118Z,0
2016-09-30T00:15:26.419Z,0
2016-09-30T00:16:41.060Z,0
2016-09-30T00:17:26.382Z,0
2016-09-30T00:18:27.190Z,0
2016-09-30T00:19:25.904Z,0
2016-09-30T00:20:26.286Z,0
2016-09-30T00:21:25.856Z,0
2016-09-30T00:22:26.331Z,0
2016-09-30T00:23:40.830Z,0
2016-09-30T00:24:26.808Z,0
2016-09-30T00:25:26.132Z,0
2016-09-30T00:26:26.216Z,0
2016-09-30T00:27:26.149Z,0
2016-09-30T00:28:25.699Z,0
2016-09-30T00:29:26.714Z,0
2016-09-30T00:30:26.724Z,0
2016-09-30T00:31:26.048Z,0
2016-09-30T00:32:26.256Z,0
2016-09-30T00:33:26.020Z,0
2016-09-30T00:34:40.194Z,0
2016-09-30T00:35:25.472Z,0
2016-09-30T00:36:25.825Z,0
2016-09-30T00:37:25.932Z,0
2016-09-30T00:38:25.899Z,0
2016-09-30T00:40:25.444Z,0
2016-09-30T00:41:39.994Z,0
2016-09-30T00:42:26.481Z,0
2016-09-30T00:43:25.754Z,0
2016-09-30T00:44:25.474Z,0
2016-09-30T00:45:25.323Z,0
2016-09-30T00:47:25.599Z,0
2016-09-30T00:48:25.468Z,0
2016-09-30T00:49:25.441Z,0
2016-09-30T00:50:41.031Z,0
2016-09-30T00:51:25.871Z,0
2016-09-30T00:53:25.365Z,0
2016-09-30T00:54:25.534Z,0
2016-09-30T00:55:24.936Z,0
2016-09-30T00:56:25.375Z,0
2016-09-30T00:57:25.353Z,0
2016-09-30T00:58:25.300Z,0
2016-09-30T00:59:24.895Z,0
2016-09-30T01:00:25.219Z,0
2016-09-30T01:01:39.879Z,0
2016-09-30T01:02:24.755Z,0
2016-09-30T01:03:24.736Z,0
2016-09-30T01:04:25.087Z,0
2016-09-30T01:05:24.669Z,0
2016-09-30T01:06:25.178Z,0
2016-09-30T01:07:24.660Z,0
2016-09-30T01:08:25.068Z,0
2016-09-30T01:09:24.991Z,0
2016-09-30T01:10:24.549Z,0
2016-09-30T01:11:25.062Z,0
2016-09-30T01:12:31.183Z,0
2016-09-30T01:13:24.610Z,0
2016-09-30T01:14:39.513Z,0
2016-09-30T01:15:24.811Z,0
2016-09-30T01:16:39.103Z,0
2016-09-30T01:17:24.388Z,0
2016-09-30T01:18:25.469Z,0
2016-09-30T01:19:24.412Z,0
2016-09-30T01:20:24.371Z,0
2016-09-30T01:21:24.719Z,0
2016-09-30T01:22:24.236Z,0
2016-09-30T01:23:38.919Z,0
2016-09-30T01:24:24.571Z,0
2016-09-30T01:25:24.168Z,0
2016-09-30T01:26:24.145Z,0
2016-09-30T01:27:24.130Z,0
2016-09-30T01:28:24.460Z,0
2016-09-30T01:29:24.959Z,0
2016-09-30T01:30:24.372Z,0
2016-09-30T01:31:24.039Z,0
2016-09-30T01:32:24.436Z,0
2016-09-30T01:33:24.321Z,0
2016-09-30T01:34:24.312Z,0
2016-09-30T01:35:39.017Z,0
2016-09-30T01:36:39.297Z,0
2016-09-30T01:37:23.860Z,0
2016-09-30T01:38:24.238Z,0
2016-09-30T01:39:23.767Z,0
2016-09-30T01:40:23.825Z,0
2016-09-30T01:41:24.171Z,0
2016-09-30T01:42:24.129Z,0
2016-09-30T01:43:24.131Z,0
2016-09-30T01:44:23.690Z,0
2016-09-30T01:45:23.624Z,0
2016-09-30T01:46:23.985Z,0
2016-09-30T01:47:38.602Z,0
2016-09-30T01:48:24.113Z,0
2016-09-30T01:49:23.546Z,0
2016-09-30T01:50:23.954Z,0
2016-09-30T01:51:23.925Z,0
2016-09-30T01:52:23.864Z,0
2016-09-30T01:53:23.473Z,0
2016-09-30T01:54:23.743Z,0
2016-09-30T01:55:23.770Z,0
2016-09-30T01:56:23.390Z,0
2016-09-30T01:57:23.321Z,0
2016-09-30T01:58:23.282Z,0
2016-09-30T01:59:23.447Z,0
2016-09-30T02:00:38.287Z,0
2016-09-30T02:01:23.574Z,0
2016-09-30T02:02:23.580Z,0
2016-09-30T02:03:28.944Z,0
2016-09-30T02:04:23.169Z,0
2016-09-30T02:05:23.458Z,0
2016-09-30T02:06:23.749Z,0
2016-09-30T02:07:23.450Z,0
2016-09-30T02:08:23.036Z,0
2016-09-30T02:09:22.982Z,0
2016-09-30T02:10:22.951Z,0
2016-09-30T02:11:23.009Z,0
2016-09-30T02:12:23.391Z,0
2016-09-30T02:13:22.930Z,0
2016-09-30T02:14:22.968Z,0
2016-09-30T02:15:23.230Z,0
2016-09-30T02:16:22.827Z,0
2016-09-30T02:17:22.765Z,0
2016-09-30T02:18:24.298Z,0
2016-09-30T02:19:23.336Z,0
2016-09-30T02:20:23.537Z,0
2016-09-30T02:21:22.731Z,0
2016-09-30T02:22:23.241Z,0
2016-09-30T02:23:37.795Z,0
2016-09-30T02:24:23.359Z,0
2016-09-30T02:25:22.593Z,0
2016-09-30T02:26:22.755Z,0
2016-09-30T02:27:22.581Z,0
2016-09-30T02:28:23.285Z,0
2016-09-30T02:29:22.914Z,0
2016-09-30T02:30:23.214Z,0
2016-09-30T02:31:22.831Z,0
2016-09-30T02:32:22.527Z,0
2016-09-30T02:33:22.835Z,0
2016-09-30T02:34:22.348Z,0
2016-09-30T02:35:23.447Z,0
2016-09-30T02:36:38.209Z,0
2016-09-30T02:37:22.741Z,0
2016-09-30T02:38:22.215Z,0
2016-09-30T02:39:22.592Z,0
2016-09-30T02:40:23.003Z,0
2016-09-30T02:41:22.573Z,0
2016-09-30T02:42:22.560Z,0
2016-09-30T02:43:22.906Z,0
2016-09-30T02:44:22.786Z,0
2016-09-30T02:45:36.773Z,0
2016-09-30T02:46:37.105Z,0
2016-09-30T02:47:22.033Z,0
2016-09-30T02:48:23.682Z,0
2016-09-30T02:49:36.625Z,0
2016-09-30T02:50:21.897Z,0
2016-09-30T02:51:22.734Z,0
2016-09-30T02:52:22.381Z,0
2016-09-30T02:53:21.838Z,0
2016-09-30T02:54:22.132Z,0
2016-09-30T02:55:22.187Z,0
2016-09-30T02:56:21.764Z,0
2016-09-30T02:57:22.457Z,0
2016-09-30T02:58:37.224Z,0
2016-09-30T02:59:22.095Z,0
2016-09-30T03:00:37.810Z,0
2016-09-30T03:01:23.665Z,0
2016-09-30T03:02:36.295Z,0
2016-09-30T03:03:22.004Z,0
2016-09-30T03:04:36.691Z,0
2016-09-30T03:05:21.562Z,0
2016-09-30T03:06:37.049Z,0
2016-09-30T03:07:21.474Z,0
2016-09-30T03:08:21.726Z,0
2016-09-30T03:09:21.406Z,0
2016-09-30T03:10:21.923Z,0
2016-09-30T03:11:22.244Z,0
2016-09-30T03:12:21.830Z,0
2016-09-30T03:13:21.717Z,0
2016-09-30T03:14:22.682Z,0
2016-09-30T03:16:21.818Z,0
2016-09-30T03:17:35.926Z,0
2016-09-30T03:18:22.026Z,0
2016-09-30T03:19:36.465Z,0
2016-09-30T03:20:21.753Z,0
2016-09-30T03:21:21.882Z,0
2016-09-30T03:22:21.547Z,0
2016-09-30T03:23:21.065Z,0
2016-09-30T03:24:21.745Z,0
2016-09-30T03:25:21.093Z,0
2016-09-30T03:26:35.640Z,0
2016-09-30T03:27:22.109Z,0
2016-09-30T03:28:35.616Z,0
2016-09-30T03:30:21.367Z,0
2016-09-30T03:31:21.632Z,0
2016-09-30T03:32:36.138Z,0
2016-09-30T03:33:21.402Z,0
2016-09-30T03:34:21.585Z,0
2016-09-30T03:35:21.321Z,0
2016-09-30T03:36:21.508Z,0
2016-09-30T03:37:20.693Z,0
2016-09-30T03:38:21.125Z,0
2016-09-30T03:39:21.110Z,0
2016-09-30T03:40:20.612Z,0
2016-09-30T03:41:20.964Z,0
2016-09-30T03:42:21.640Z,0
2016-09-30T03:43:20.515Z,0
2016-09-30T03:44:20.879Z,0
2016-09-30T03:45:20.659Z,0
2016-09-30T03:46:20.949Z,0
2016-09-30T03:47:20.627Z,0
2016-09-30T03:48:20.786Z,0
2016-09-30T03:49:20.712Z,0
2016-09-30T03:50:35.069Z,0
2016-09-30T03:51:20.329Z,0
2016-09-30T03:52:20.837Z,0
2016-09-30T03:53:21.407Z,0
2016-09-30T03:54:20.556Z,0
2016-09-30T03:55:20.850Z,0
2016-09-30T03:56:20.603Z,0
2016-09-30T03:57:20.581Z,0
2016-09-30T03:58:20.945Z,0
2016-09-30T03:59:20.648Z,0
2016-09-30T04:00:20.422Z,0
2016-09-30T04:01:20.501Z,0
2016-09-30T04:02:20.850Z,0
2016-09-30T04:03:20.545Z,0
2016-09-30T04:04:20.049Z,0
2016-09-30T04:05:34.862Z,0
2016-09-30T04:06:20.640Z,0
2016-09-30T04:07:20.268Z,0
2016-09-30T04:08:34.544Z,0
2016-09-30T04:09:19.920Z,0
2016-09-30T04:10:19.843Z,0
2016-09-30T04:11:20.560Z,0
2016-09-30T04:12:20.090Z,0
2016-09-30T04:13:19.762Z,0
2016-09-30T04:14:19.755Z,0
2016-09-30T04:15:19.673Z,0
2016-09-30T04:16:19.647Z,0
2016-09-30T04:17:35.417Z,0
2016-09-30T04:18:20.404Z,0
2016-09-30T04:19:20.067Z,0
2016-09-30T04:20:19.532Z,0
2016-09-30T04:21:20.264Z,0
2016-09-30T04:22:19.607Z,0
2016-09-30T04:23:20.363Z,0
2016-09-30T04:25:20.114Z,0
2016-09-30T04:26:34.931Z,0
2016-09-30T04:27:34.198Z,0
2016-09-30T04:28:34.817Z,0
2016-09-30T04:29:20.050Z,0
2016-09-30T04:30:19.676Z,0
2016-09-30T04:31:19.585Z,0
2016-09-30T04:33:34.413Z,0
2016-09-30T04:34:19.171Z,0
2016-09-30T04:35:33.847Z,0
2016-09-30T04:36:19.615Z,0
2016-09-30T04:37:19.824Z,0
2016-09-30T04:38:49.147Z,0
2016-09-30T04:39:19.821Z,0
2016-09-30T04:40:19.076Z,0
2016-09-30T04:41:19.661Z,0
2016-09-30T04:42:33.690Z,0
2016-09-30T04:43:19.295Z,0
2016-09-30T04:44:33.979Z,0
2016-09-30T04:45:19.585Z,0
2016-09-30T04:47:19.598Z,0
2016-09-30T04:48:19.306Z,0
2016-09-30T04:49:20.788Z,0
2016-09-30T04:50:33.499Z,0
2016-09-30T04:51:18.738Z,0
2016-09-30T04:52:19.559Z,0
2016-09-30T04:53:19.069Z,0
2016-09-30T04:54:19.108Z,0
2016-09-30T04:55:19.050Z,0
2016-09-30T04:56:18.570Z,0
2016-09-30T04:57:33.687Z,0
2016-09-30T04:58:18.945Z,0
2016-09-30T04:59:18.920Z,0
2016-09-30T05:00:18.517Z,0
2016-09-30T05:01:19.634Z,0
2016-09-30T05:02:18.470Z,0
2016-09-30T05:03:18.590Z,0
2016-09-30T05:04:18.777Z,0
2016-09-30T05:05:18.783Z,0
2016-09-30T05:06:19.185Z,0
2016-09-30T05:07:18.694Z,0
2016-09-30T05:08:33.382Z,0
2016-09-30T05:09:18.382Z,0
2016-09-30T05:10:32.890Z,0
2016-09-30T05:11:19.366Z,0
2016-09-30T05:12:33.225Z,0
2016-09-30T05:13:18.544Z,0
2016-09-30T05:14:18.586Z,0
2016-09-30T05:15:18.633Z,0
2016-09-30T05:16:18.156Z,0
2016-09-30T05:17:18.784Z,0
2016-09-30T05:18:18.822Z,0
2016-09-30T05:19:18.680Z,0
2016-09-30T05:20:18.589Z,0
2016-09-30T05:21:33.064Z,0
2016-09-30T05:22:17.901Z,0
2016-09-30T05:23:32.691Z,0
2016-09-30T05:24:18.276Z,0
2016-09-30T05:25:34.110Z,0
2016-09-30T05:26:17.997Z,0
2016-09-30T05:27:18.483Z,0
2016-09-30T05:28:17.766Z,0
2016-09-30T05:29:17.802Z,0
2016-09-30T05:30:18.489Z,0
2016-09-30T05:31:18.056Z,0
2016-09-30T05:32:33.353Z,0
2016-09-30T05:33:18.257Z,0
2016-09-30T05:34:32.695Z,0
2016-09-30T05:36:32.886Z,0
2016-09-30T05:37:17.644Z,0
2016-09-30T05:38:17.501Z,0
2016-09-30T05:39:17.491Z,0
2016-09-30T05:40:19.341Z,0
2016-09-30T05:41:32.870Z,0
2016-09-30T05:42:17.716Z,0
2016-09-30T05:43:32.030Z,0
2016-09-30T05:44:17.819Z,0
2016-09-30T05:45:17.429Z,0
2016-09-30T05:46:18.124Z,0
2016-09-30T05:47:17.620Z,0
2016-09-30T05:48:18.769Z,0
2016-09-30T05:49:18.071Z,0
2016-09-30T05:50:17.236Z,0
2016-09-30T05:51:32.488Z,0
2016-09-30T05:52:17.540Z,0
2016-09-30T05:53:17.715Z,0
2016-09-30T05:54:17.463Z,0
2016-09-30T05:55:17.835Z,0
2016-09-30T05:56:47.009Z,0
2016-09-30T05:57:18.082Z,0
2016-09-30T05:58:17.028Z,0
2016-09-30T05:59:16.932Z,5
2016-09-30T06:00:32.348Z,5
2016-09-30T06:01:17.928Z,5
2016-09-30T06:02:17.281Z,5
2016-09-30T06:03:17.013Z,5
2016-09-30T06:04:17.628Z,5
2016-09-30T06:05:16.839Z,5
2016-09-30T06:06:17.221Z,5
2016-09-30T06:07:17.715Z,10
2016-09-30T06:08:17.169Z,10
2016-09-30T06:09:17.095Z,10
2016-09-30T06:10:16.635Z,10
2016-09-30T06:11:17.741Z,10
2016-09-30T06:12:17.358Z,10
2016-09-30T06:13:31.210Z,10
2016-09-30T06:14:31.750Z,10
2016-09-30T06:15:25.909Z,10
2016-09-30T06:16:17.356Z,10
2016-09-30T06:17:16.474Z,10
2016-09-30T06:18:32.215Z,10
2016-09-30T06:19:16.823Z,10
2016-09-30T06:20:17.166Z,10
2016-09-30T06:21:16.352Z,10
2016-09-30T06:22:17.179Z,10
2016-09-30T06:23:31.472Z,10
2016-09-30T06:24:16.588Z,10
2016-09-30T06:25:16.320Z,10
2016-09-30T06:26:17.446Z,10
2016-09-30T06:27:31.286Z,10
2016-09-30T06:28:16.553Z,15
2016-09-30T06:29:30.885Z,10
2016-09-30T06:30:16.512Z,10
2016-09-30T06:31:30.741Z,10
2016-09-30T06:32:16.473Z,10
2016-09-30T06:33:22.341Z,10
2016-09-30T06:34:16.409Z,10
2016-09-30T06:35:30.625Z,10
2016-09-30T06:36:17.033Z,10
2016-09-30T06:37:30.590Z,10
2016-09-30T06:38:16.453Z,10
2016-09-30T06:39:16.670Z,10
2016-09-30T06:40:16.601Z,10
2016-09-30T06:41:16.121Z,10
2016-09-30T06:42:30.429Z,10
2016-09-30T06:43:16.162Z,10
2016-09-30T06:44:15.780Z,15
2016-09-30T06:45:15.749Z,15
2016-09-30T06:46:30.533Z,15
2016-09-30T06:47:15.732Z,15
2016-09-30T06:48:15.702Z,15
2016-09-30T06:50:16.239Z,15
2016-09-30T06:51:15.866Z,15
2016-09-30T06:52:16.405Z,15
2016-09-30T06:53:16.175Z,15
2016-09-30T06:55:16.238Z,15
2016-09-30T06:56:15.461Z,15
2016-09-30T06:57:15.977Z,15
2016-09-30T06:58:17.528Z,15
2016-09-30T06:59:15.394Z,10
2016-09-30T07:00:15.413Z,15
2016-09-30T07:01:15.978Z,15
2016-09-30T07:02:15.377Z,15
2016-09-30T07:03:15.761Z,15
2016-09-30T07:04:16.020Z,15
2016-09-30T07:05:15.790Z,15
2016-09-30T07:06:15.224Z,15
2016-09-30T07:07:15.956Z,15
2016-09-30T07:08:15.146Z,15
2016-09-30T07:09:15.639Z,15
2016-09-30T07:10:15.489Z,15
2016-09-30T07:11:29.915Z,15
2016-09-30T07:12:14.983Z,15
2016-09-30T07:13:30.368Z,15
2016-09-30T07:14:15.372Z,15
2016-09-30T07:15:14.921Z,15
2016-09-30T07:16:16.027Z,15
2016-09-30T07:17:15.307Z,15
2016-09-30T07:18:14.895Z,15
2016-09-30T07:19:15.698Z,15
2016-09-30T07:20:14.871Z,15
2016-09-30T07:21:15.245Z,15
2016-09-30T07:22:15.215Z,15
2016-09-30T07:23:15.523Z,20
2016-09-30T07:24:15.049Z,20
2016-09-30T07:25:15.206Z,15
2016-09-30T07:26:14.866Z,20
2016-09-30T07:27:15.450Z,20
2016-09-30T07:28:14.542Z,20
2016-09-30T07:29:14.633Z,20
2016-09-30T07:30:14.569Z,20
2016-09-30T07:31:15.258Z,20
2016-09-30T07:32:15.107Z,20
2016-09-30T07:33:14.870Z,20
2016-09-30T07:34:30.222Z,20
2016-09-30T07:36:15.803Z,20
2016-09-30T07:37:14.697Z,20
2016-09-30T07:38:14.748Z,20
2016-09-30T07:39:14.388Z,25
2016-09-30T07:40:44.426Z,25
2016-09-30T07:41:14.834Z,25
2016-09-30T07:42:29.014Z,25
2016-09-30T07:43:15.851Z,25
2016-09-30T07:44:14.975Z,25
2016-09-30T07:45:14.559Z,25
2016-09-30T07:46:14.709Z,25
2016-09-30T07:47:14.527Z,25
2016-09-30T07:48:15.235Z,25
2016-09-30T07:49:14.464Z,25
2016-09-30T07:50:14.415Z,25
2016-09-30T07:51:14.022Z,25
2016-09-30T07:52:14.108Z,25
2016-09-30T07:53:14.380Z,25
2016-09-30T07:54:14.650Z,25
2016-09-30T07:55:13.900Z,25
2016-09-30T07:57:14.639Z,25
2016-09-30T07:58:28.517Z,25
2016-09-30T07:59:13.764Z,25
2016-09-30T08:00:29.472Z,25
2016-09-30T08:01:15.437Z,25
2016-09-30T08:02:19.951Z,25
2016-09-30T08:03:13.653Z,25
2016-09-30T08:04:14.000Z,30
2016-09-30T08:05:13.787Z,30
2016-09-30T08:06:14.077Z,30
2016-09-30T08:07:13.676Z,25
2016-09-30T08:08:14.341Z,25
2016-09-30T08:09:14.422Z,25
2016-09-30T08:10:13.970Z,25
2016-09-30T08:11:43.139Z,25
2016-09-30T08:12:14.464Z,25
2016-09-30T08:13:28.115Z,25
2016-09-30T08:14:13.958Z,25
2016-09-30T08:16:13.340Z,30
2016-09-30T08:17:13.306Z,30
2016-09-30T08:18:13.619Z,30
2016-09-30T08:19:13.486Z,30
2016-09-30T08:20:13.394Z,30
2016-09-30T08:21:14.036Z,35
2016-09-30T08:22:14.112Z,35
2016-09-30T08:23:13.330Z,35
2016-09-30T08:24:13.552Z,35
2016-09-30T08:25:13.315Z,30
2016-09-30T08:26:27.830Z,30
2016-09-30T08:27:13.499Z,30
2016-09-30T08:28:28.442Z,35
2016-09-30T08:30:43.695Z,30
2016-09-30T08:31:13.174Z,30
2016-09-30T08:32:13.939Z,30
2016-09-30T08:33:13.046Z,30
2016-09-30T08:34:14.066Z,30
2016-09-30T08:36:35.307Z,35
2016-09-30T08:37:12.980Z,35
2016-09-30T08:38:13.628Z,35
2016-09-30T08:39:13.129Z,35
2016-09-30T08:40:13.640Z,35
2016-09-30T08:41:13.998Z,35
2016-09-30T08:43:13.526Z,30
2016-09-30T08:44:27.781Z,30
2016-09-30T08:45:12.520Z,30
2016-09-30T08:46:27.147Z,30
2016-09-30T08:47:13.145Z,30
2016-09-30T08:48:13.277Z,30
2016-09-30T08:49:12.422Z,35
2016-09-30T08:50:13.495Z,40
2016-09-30T08:51:12.944Z,40
2016-09-30T08:52:12.689Z,45
2016-09-30T08:53:12.401Z,45
2016-09-30T08:54:13.389Z,45
2016-09-30T08:55:13.252Z,45
2016-09-30T08:56:12.351Z,50
2016-09-30T08:57:12.966Z,50
2016-09-30T08:58:12.882Z,40
2016-09-30T08:59:13.145Z,45
2016-09-30T09:01:13.365Z,40
2016-09-30T09:03:26.803Z,40
2016-09-30T09:04:41.811Z,35
2016-09-30T09:06:13.355Z,35
2016-09-30T09:07:12.139Z,35
2016-09-30T09:08:11.931Z,35
2016-09-30T09:10:27.932Z,35
2016-09-30T09:11:42.975Z,35
2016-09-30T09:12:11.892Z,35
2016-09-30T09:13:12.686Z,35
2016-09-30T09:14:26.919Z,35
2016-09-30T09:15:34.363Z,40
2016-09-30T09:16:18.123Z,35
2016-09-30T09:17:12.553Z,35
2016-09-30T09:18:11.687Z,35
2016-09-30T09:19:55.797Z,35
2016-09-30T09:21:12.214Z,40
2016-09-30T09:22:26.310Z,40
2016-09-30T09:23:11.887Z,40
2016-09-30T09:24:12.288Z,40
2016-09-30T09:25:12.449Z,40
2016-09-30T09:26:26.552Z,35
2016-09-30T09:27:26.493Z,35
2016-09-30T09:28:26.087Z,35
2016-09-30T09:29:27.744Z,35
2016-09-30T09:30:13.547Z,35
2016-09-30T09:31:12.398Z,35
2016-09-30T09:32:13.132Z,35
2016-09-30T09:33:12.938Z,35
2016-09-30T09:34:42.355Z,35
2016-09-30T09:35:41.651Z,40
2016-09-30T09:36:25.980Z,40
2016-09-30T09:37:25.903Z,40
2016-09-30T09:38:26.625Z,35
2016-09-30T09:39:12.136Z,35
2016-09-30T09:40:12.296Z,35
2016-09-30T09:41:11.998Z,40
2016-09-30T09:42:11.049Z,45
2016-09-30T09:44:12.028Z,45
2016-09-30T09:45:26.325Z,50
2016-09-30T09:46:13.074Z,50
2016-09-30T09:47:25.691Z,55
2016-09-30T09:49:11.196Z,70
2016-09-30T09:51:32.340Z,60
2016-09-30T09:53:25.727Z,60
2016-09-30T09:54:40.910Z,60
2016-09-30T09:55:11.643Z,60
2016-09-30T09:56:26.359Z,60
2016-09-30T09:57:12.964Z,60
2016-09-30T09:58:40.070Z,60
2016-09-30T09:59:55.250Z,60
2016-09-30T10:00:40.662Z,60
2016-09-30T10:01:55.226Z,60
2016-09-30T10:03:42.946Z,55
2016-09-30T10:04:12.309Z,50
2016-09-30T10:05:11.937Z,45
2016-09-30T10:06:10.995Z,45
2016-09-30T10:07:25.498Z,50
2016-09-30T10:08:10.789Z,45
2016-09-30T10:09:25.936Z,45
2016-09-30T10:10:11.887Z,45
2016-09-30T10:11:11.286Z,45
2016-09-30T10:12:13.097Z,40
2016-09-30T10:13:10.463Z,40
2016-09-30T10:14:11.190Z,40
2016-09-30T10:15:11.546Z,40
2016-09-30T10:16:25.357Z,40
2016-09-30T10:17:12.820Z,40
2016-09-30T10:18:25.652Z,45
2016-09-30T10:19:11.447Z,45
2016-09-30T10:20:10.919Z,45
2016-09-30T10:21:10.654Z,45
2016-09-30T10:22:10.654Z,40
2016-09-30T10:23:10.718Z,40
2016-09-30T10:28:25.819Z,40
2016-09-30T10:29:40.038Z,40
2016-09-30T10:30:12.195Z,45
2016-09-30T10:31:12.548Z,50
2016-09-30T10:32:10.942Z,60
2016-09-30T10:33:11.180Z,60
2016-09-30T10:34:09.895Z,65
2016-09-30T10:35:10.270Z,65
2016-09-30T10:37:24.762Z,70
2016-09-30T10:38:39.307Z,65
2016-09-30T10:39:10.739Z,60
2016-09-30T10:40:24.614Z,55
2016-09-30T10:42:09.954Z,55
2016-09-30T10:43:10.652Z,50
2016-09-30T10:44:38.981Z,50
2016-09-30T10:45:24.962Z,50
2016-09-30T10:46:25.932Z,50
2016-09-30T10:47:11.333Z,50
2016-09-30T10:48:11.867Z,50
2016-09-30T10:49:12.044Z,55
2016-09-30T10:51:39.920Z,60
2016-09-30T10:52:23.925Z,60
2016-09-30T10:53:16.287Z,55
2016-09-30T10:54:17.103Z,55
2016-09-30T10:55:39.051Z,45
2016-09-30T10:56:11.252Z,40
2016-09-30T10:57:09.490Z,30
2016-09-30T10:58:09.942Z,25
2016-09-30T10:59:10.285Z,30
2016-09-30T11:00:23.721Z,25
2016-09-30T11:01:10.617Z,25
2016-09-30T11:02:09.897Z,25
2016-09-30T11:03:11.183Z,30
2016-09-30T11:04:39.083Z,30
2016-09-30T11:05:26.414Z,35
2016-09-30T11:06:12.630Z,35
2016-09-30T11:07:10.963Z,45
2016-09-30T11:08:11.388Z,55
2016-09-30T11:09:16.692Z,45
2016-09-30T11:11:24.172Z,30
2016-09-30T11:12:09.106Z,35
2016-09-30T11:13:25.128Z,40
2016-09-30T11:14:09.704Z,45
2016-09-30T11:15:23.843Z,55
2016-09-30T11:16:09.131Z,60
2016-09-30T11:17:23.275Z,65
2016-09-30T11:18:09.956Z,60
2016-09-30T11:19:08.627Z,60
2016-09-30T11:20:09.366Z,55
2016-09-30T11:21:08.973Z,55
2016-09-30T11:22:09.362Z,50
2016-09-30T11:23:10.198Z,45
2016-09-30T11:24:09.965Z,40
2016-09-30T11:25:08.800Z,30
2016-09-30T11:26:08.792Z,30
2016-09-30T11:27:08.936Z,40
2016-09-30T11:28:23.493Z,45
2016-09-30T11:29:23.420Z,40
2016-09-30T11:30:09.230Z,50
2016-09-30T11:31:08.881Z,55
2016-09-30T11:32:09.395Z,55
2016-09-30T11:33:09.123Z,55
2016-09-30T11:34:23.362Z,60
2016-09-30T11:35:08.536Z,60
2016-09-30T11:36:08.704Z,55
2016-09-30T11:37:08.065Z,50
2016-09-30T11:39:37.709Z,45
2016-09-30T11:40:37.362Z,55
2016-09-30T11:42:37.942Z,65
2016-09-30T11:44:23.643Z,65
2016-09-30T11:45:23.274Z,65
2016-09-30T11:46:08.895Z,65
2016-09-30T11:47:37.799Z,65
2016-09-30T11:48:37.758Z,70
2016-09-30T11:50:08.852Z,70
2016-09-30T11:51:23.038Z,70
2016-09-30T11:52:37.681Z,70
2016-09-30T11:53:22.700Z,70
2016-09-30T11:54:57.340Z,70
2016-09-30T11:55:08.789Z,70
2016-09-30T11:56:23.112Z,75
2016-09-30T11:57:10.389Z,65
2016-09-30T11:58:36.925Z,60
